sensor_id;sensor_type;location;lat;lon;timestamp;P1;durP1;ratioP1;P2;durP2;ratioP2
23658;SDS011;12006;42.666;23.326;2023-08-17T00:02:30;5.72;;;5.18;;
23658;SDS011;12006;42.666;23.326;2023-08-17T00:05:54;7.75;;;5.47;;
23658;SDS011;12006;42.666;23.326;2023-08-17T00:09:18;5.40;;;4.82;;
23658;SDS011;12006;42.666;23.326;2023-08-17T00:12:43;7.18;;;5.40;;
23658;SDS011;12006;42.666;23.326;2023-08-17T00:16:06;7.47;;;5.35;;
23658;SDS011;12006;42.666;23.326;2023-08-17T00:19:30;5.80;;;4.88;;
23658;SDS011;12006;42.666;23.326;2023-08-17T00:22:54;5.78;;;5.18;;
23658;SDS011;12006;42.666;23.326;2023-08-17T00:26:18;5.65;;;5.15;;
23658;SDS011;12006;42.666;23.326;2023-08-17T00:29:42;5.80;;;5.22;;
23658;SDS011;12006;42.666;23.326;2023-08-17T00:33:06;5.65;;;5.15;;
23658;SDS011;12006;42.666;23.326;2023-08-17T00:36:30;6.32;;;5.65;;
23658;SDS011;12006;42.666;23.326;2023-08-17T00:39:53;6.68;;;5.30;;
23658;SDS011;12006;42.666;23.326;2023-08-17T00:43:17;5.72;;;5.00;;
23658;SDS011;12006;42.666;23.326;2023-08-17T00:46:41;6.03;;;4.72;;
23658;SDS011;12006;42.666;23.326;2023-08-17T00:50:06;4.97;;;4.38;;
23658;SDS011;12006;42.666;23.326;2023-08-17T00:53:30;5.38;;;4.80;;
23658;SDS011;12006;42.666;23.326;2023-08-17T00:56:55;6.28;;;4.53;;
23658;SDS011;12006;42.666;23.326;2023-08-17T01:00:21;5.03;;;4.35;;
23658;SDS011;12006;42.666;23.326;2023-08-17T01:03:45;4.82;;;4.32;;
23658;SDS011;12006;42.666;23.326;2023-08-17T01:07:09;4.82;;;4.35;;
23658;SDS011;12006;42.666;23.326;2023-08-17T01:10:47;4.55;;;4.00;;
23658;SDS011;12006;42.666;23.326;2023-08-17T01:21:25;4.72;;;3.83;;
23658;SDS011;12006;42.666;23.326;2023-08-17T01:24:55;4.30;;;3.80;;
23658;SDS011;12006;42.666;23.326;2023-08-17T01:28:19;5.57;;;4.03;;
23658;SDS011;12006;42.666;23.326;2023-08-17T01:32:26;3.88;;;3.47;;
23658;SDS011;12006;42.666;23.326;2023-08-17T01:35:39;3.83;;;3.20;;
23658;SDS011;12006;42.666;23.326;2023-08-17T01:39:08;3.95;;;3.20;;
23658;SDS011;12006;42.666;23.326;2023-08-17T01:42:34;4.18;;;3.20;;
23658;SDS011;12006;42.666;23.326;2023-08-17T01:45:59;4.28;;;2.97;;
23658;SDS011;12006;42.666;23.326;2023-08-17T01:49:23;3.45;;;3.15;;
23658;SDS011;12006;42.666;23.326;2023-08-17T01:52:47;3.65;;;3.10;;
23658;SDS011;12006;42.666;23.326;2023-08-17T01:56:11;4.50;;;3.05;;
23658;SDS011;12006;42.666;23.326;2023-08-17T01:59:35;3.95;;;3.08;;
23658;SDS011;12006;42.666;23.326;2023-08-17T02:02:58;3.63;;;2.83;;
23658;SDS011;12006;42.666;23.326;2023-08-17T02:06:24;4.78;;;2.90;;
23658;SDS011;12006;42.666;23.326;2023-08-17T02:09:48;3.58;;;3.03;;
23658;SDS011;12006;42.666;23.326;2023-08-17T02:13:12;3.80;;;3.50;;
23658;SDS011;12006;42.666;23.326;2023-08-17T02:16:36;2.97;;;2.70;;
23658;SDS011;12006;42.666;23.326;2023-08-17T02:20:00;3.15;;;2.85;;
23658;SDS011;12006;42.666;23.326;2023-08-17T02:23:24;2.90;;;2.70;;
23658;SDS011;12006;42.666;23.326;2023-08-17T02:26:48;5.32;;;3.30;;
23658;SDS011;12006;42.666;23.326;2023-08-17T02:30:12;4.18;;;2.80;;
23658;SDS011;12006;42.666;23.326;2023-08-17T02:33:36;3.90;;;3.28;;
23658;SDS011;12006;42.666;23.326;2023-08-17T02:37:00;4.97;;;3.17;;
23658;SDS011;12006;42.666;23.326;2023-08-17T02:40:24;5.47;;;3.78;;
23658;SDS011;12006;42.666;23.326;2023-08-17T02:43:48;4.13;;;2.72;;
23658;SDS011;12006;42.666;23.326;2023-08-17T02:47:12;4.97;;;3.17;;
23658;SDS011;12006;42.666;23.326;2023-08-17T02:50:36;4.22;;;3.00;;
23658;SDS011;12006;42.666;23.326;2023-08-17T02:54:00;4.20;;;3.17;;
23658;SDS011;12006;42.666;23.326;2023-08-17T02:57:24;4.05;;;3.15;;
23658;SDS011;12006;42.666;23.326;2023-08-17T03:00:47;3.97;;;3.25;;
23658;SDS011;12006;42.666;23.326;2023-08-17T03:04:14;4.97;;;3.45;;
23658;SDS011;12006;42.666;23.326;2023-08-17T03:07:38;4.82;;;3.13;;
23658;SDS011;12006;42.666;23.326;2023-08-17T03:11:02;4.13;;;3.22;;
23658;SDS011;12006;42.666;23.326;2023-08-17T03:14:26;5.32;;;2.97;;
23658;SDS011;12006;42.666;23.326;2023-08-17T03:17:49;2.97;;;2.78;;
23658;SDS011;12006;42.666;23.326;2023-08-17T03:21:13;4.47;;;4.07;;
23658;SDS011;12006;42.666;23.326;2023-08-17T03:24:37;4.32;;;3.00;;
23658;SDS011;12006;42.666;23.326;2023-08-17T03:28:02;3.40;;;3.10;;
23658;SDS011;12006;42.666;23.326;2023-08-17T03:31:26;3.42;;;3.13;;
23658;SDS011;12006;42.666;23.326;2023-08-17T03:34:50;3.75;;;3.05;;
23658;SDS011;12006;42.666;23.326;2023-08-17T03:38:14;3.72;;;3.30;;
23658;SDS011;12006;42.666;23.326;2023-08-17T03:41:38;3.13;;;2.83;;
23658;SDS011;12006;42.666;23.326;2023-08-17T03:45:02;3.42;;;3.13;;
23658;SDS011;12006;42.666;23.326;2023-08-17T03:48:27;3.10;;;2.90;;
23658;SDS011;12006;42.666;23.326;2023-08-17T03:51:50;3.25;;;2.97;;
23658;SDS011;12006;42.666;23.326;2023-08-17T03:55:14;3.60;;;3.30;;
23658;SDS011;12006;42.666;23.326;2023-08-17T03:58:38;4.38;;;3.30;;
23658;SDS011;12006;42.666;23.326;2023-08-17T04:02:02;4.60;;;3.85;;
23658;SDS011;12006;42.666;23.326;2023-08-17T04:05:27;3.10;;;2.80;;
23658;SDS011;12006;42.666;23.326;2023-08-17T04:08:51;3.67;;;3.13;;
23658;SDS011;12006;42.666;23.326;2023-08-17T04:12:14;3.17;;;2.88;;
23658;SDS011;12006;42.666;23.326;2023-08-17T04:15:38;3.28;;;2.70;;
23658;SDS011;12006;42.666;23.326;2023-08-17T04:19:02;3.50;;;3.20;;
23658;SDS011;12006;42.666;23.326;2023-08-17T04:22:26;3.40;;;3.10;;
23658;SDS011;12006;42.666;23.326;2023-08-17T04:25:50;3.20;;;2.90;;
23658;SDS011;12006;42.666;23.326;2023-08-17T04:29:14;3.55;;;2.97;;
23658;SDS011;12006;42.666;23.326;2023-08-17T04:32:38;4.10;;;3.67;;
23658;SDS011;12006;42.666;23.326;2023-08-17T04:36:02;3.60;;;3.15;;
23658;SDS011;12006;42.666;23.326;2023-08-17T04:39:27;3.40;;;3.10;;
23658;SDS011;12006;42.666;23.326;2023-08-17T04:42:51;4.43;;;3.40;;
23658;SDS011;12006;42.666;23.326;2023-08-17T04:46:15;4.53;;;2.78;;
23658;SDS011;12006;42.666;23.326;2023-08-17T04:49:39;4.28;;;2.60;;
23658;SDS011;12006;42.666;23.326;2023-08-17T04:53:03;3.72;;;2.95;;
23658;SDS011;12006;42.666;23.326;2023-08-17T04:56:27;4.20;;;3.38;;
23658;SDS011;12006;42.666;23.326;2023-08-17T04:59:53;7.78;;;4.60;;
23658;SDS011;12006;42.666;23.326;2023-08-17T05:03:17;3.50;;;2.72;;
23658;SDS011;12006;42.666;23.326;2023-08-17T05:06:40;5.15;;;3.03;;
23658;SDS011;12006;42.666;23.326;2023-08-17T05:10:05;5.55;;;4.90;;
23658;SDS011;12006;42.666;23.326;2023-08-17T05:13:29;9.23;;;6.53;;
23658;SDS011;12006;42.666;23.326;2023-08-17T05:16:53;3.70;;;3.20;;
23658;SDS011;12006;42.666;23.326;2023-08-17T05:20:17;4.05;;;3.50;;
23658;SDS011;12006;42.666;23.326;2023-08-17T05:23:40;4.22;;;3.45;;
23658;SDS011;12006;42.666;23.326;2023-08-17T05:27:04;4.47;;;3.63;;
23658;SDS011;12006;42.666;23.326;2023-08-17T05:30:29;6.60;;;4.05;;
23658;SDS011;12006;42.666;23.326;2023-08-17T05:33:53;4.82;;;4.32;;
23658;SDS011;12006;42.666;23.326;2023-08-17T05:37:16;7.18;;;4.15;;
23658;SDS011;12006;42.666;23.326;2023-08-17T05:40:40;5.00;;;4.50;;
23658;SDS011;12006;42.666;23.326;2023-08-17T05:44:04;5.63;;;3.90;;
23658;SDS011;12006;42.666;23.326;2023-08-17T05:47:28;4.28;;;3.75;;
23658;SDS011;12006;42.666;23.326;2023-08-17T05:50:52;4.55;;;4.13;;
23658;SDS011;12006;42.666;23.326;2023-08-17T05:54:16;4.63;;;3.50;;
23658;SDS011;12006;42.666;23.326;2023-08-17T05:57:40;5.47;;;4.55;;
23658;SDS011;12006;42.666;23.326;2023-08-17T06:01:05;6.25;;;4.65;;
23658;SDS011;12006;42.666;23.326;2023-08-17T06:04:29;3.92;;;2.97;;
23658;SDS011;12006;42.666;23.326;2023-08-17T06:07:56;3.00;;;2.67;;
23658;SDS011;12006;42.666;23.326;2023-08-17T06:11:20;3.17;;;2.85;;
23658;SDS011;12006;42.666;23.326;2023-08-17T06:14:44;4.35;;;3.03;;
23658;SDS011;12006;42.666;23.326;2023-08-17T06:18:08;4.15;;;3.00;;
23658;SDS011;12006;42.666;23.326;2023-08-17T06:21:32;6.47;;;3.45;;
23658;SDS011;12006;42.666;23.326;2023-08-17T06:24:56;3.20;;;2.88;;
23658;SDS011;12006;42.666;23.326;2023-08-17T06:28:24;3.97;;;3.55;;
23658;SDS011;12006;42.666;23.326;2023-08-17T06:31:48;5.03;;;3.15;;
23658;SDS011;12006;42.666;23.326;2023-08-17T06:35:12;4.13;;;3.42;;
23658;SDS011;12006;42.666;23.326;2023-08-17T06:38:41;4.00;;;3.60;;
23658;SDS011;12006;42.666;23.326;2023-08-17T06:42:05;3.88;;;3.45;;
23658;SDS011;12006;42.666;23.326;2023-08-17T06:45:30;6.50;;;4.40;;
23658;SDS011;12006;42.666;23.326;2023-08-17T06:48:54;7.50;;;4.22;;
23658;SDS011;12006;42.666;23.326;2023-08-17T06:52:19;4.72;;;4.15;;
23658;SDS011;12006;42.666;23.326;2023-08-17T06:55:43;4.03;;;3.63;;
23658;SDS011;12006;42.666;23.326;2023-08-17T06:59:07;5.10;;;3.95;;
23658;SDS011;12006;42.666;23.326;2023-08-17T07:02:31;3.65;;;3.35;;
23658;SDS011;12006;42.666;23.326;2023-08-17T07:05:55;3.78;;;3.28;;
23658;SDS011;12006;42.666;23.326;2023-08-17T07:09:20;4.65;;;3.70;;
23658;SDS011;12006;42.666;23.326;2023-08-17T07:12:44;6.28;;;5.72;;
23658;SDS011;12006;42.666;23.326;2023-08-17T07:16:08;5.00;;;4.07;;
23658;SDS011;12006;42.666;23.326;2023-08-17T07:19:32;6.88;;;4.80;;
23658;SDS011;12006;42.666;23.326;2023-08-17T07:22:56;4.03;;;3.70;;
23658;SDS011;12006;42.666;23.326;2023-08-17T07:26:20;4.30;;;3.90;;
23658;SDS011;12006;42.666;23.326;2023-08-17T07:29:44;3.65;;;3.35;;
23658;SDS011;12006;42.666;23.326;2023-08-17T07:33:08;3.75;;;3.45;;
23658;SDS011;12006;42.666;23.326;2023-08-17T07:36:33;5.68;;;4.57;;
23658;SDS011;12006;42.666;23.326;2023-08-17T07:39:58;6.55;;;4.20;;
23658;SDS011;12006;42.666;23.326;2023-08-17T07:43:22;3.83;;;3.17;;
23658;SDS011;12006;42.666;23.326;2023-08-17T07:46:46;4.38;;;3.30;;
23658;SDS011;12006;42.666;23.326;2023-08-17T07:50:10;4.50;;;4.03;;
23658;SDS011;12006;42.666;23.326;2023-08-17T07:53:34;4.30;;;3.90;;
23658;SDS011;12006;42.666;23.326;2023-08-17T07:56:58;3.80;;;3.40;;
23658;SDS011;12006;42.666;23.326;2023-08-17T08:00:22;4.20;;;3.60;;
23658;SDS011;12006;42.666;23.326;2023-08-17T08:03:46;3.45;;;3.17;;
23658;SDS011;12006;42.666;23.326;2023-08-17T08:07:10;3.25;;;2.90;;
23658;SDS011;12006;42.666;23.326;2023-08-17T08:10:34;3.28;;;3.00;;
23658;SDS011;12006;42.666;23.326;2023-08-17T08:13:58;3.47;;;3.17;;
23658;SDS011;12006;42.666;23.326;2023-08-17T08:17:22;3.67;;;3.08;;
23658;SDS011;12006;42.666;23.326;2023-08-17T08:20:46;3.90;;;3.15;;
23658;SDS011;12006;42.666;23.326;2023-08-17T08:24:09;4.90;;;3.42;;
23658;SDS011;12006;42.666;23.326;2023-08-17T08:27:33;3.83;;;3.40;;
23658;SDS011;12006;42.666;23.326;2023-08-17T08:31:01;5.85;;;4.40;;
23658;SDS011;12006;42.666;23.326;2023-08-17T08:34:27;3.78;;;3.47;;
23658;SDS011;12006;42.666;23.326;2023-08-17T08:37:52;5.03;;;3.47;;
23658;SDS011;12006;42.666;23.326;2023-08-17T08:41:16;5.68;;;4.32;;
23658;SDS011;12006;42.666;23.326;2023-08-17T08:44:41;3.83;;;3.38;;
23658;SDS011;12006;42.666;23.326;2023-08-17T08:48:06;5.00;;;4.22;;
23658;SDS011;12006;42.666;23.326;2023-08-17T08:51:31;3.67;;;3.22;;
23658;SDS011;12006;42.666;23.326;2023-08-17T08:55:03;3.60;;;3.30;;
23658;SDS011;12006;42.666;23.326;2023-08-17T08:58:29;4.68;;;4.28;;
23658;SDS011;12006;42.666;23.326;2023-08-17T09:01:53;4.45;;;3.60;;
23658;SDS011;12006;42.666;23.326;2023-08-17T09:05:19;2.95;;;2.75;;
23658;SDS011;12006;42.666;23.326;2023-08-17T09:08:46;3.70;;;2.80;;
23658;SDS011;12006;42.666;23.326;2023-08-17T09:12:11;4.05;;;3.10;;
23658;SDS011;12006;42.666;23.326;2023-08-17T09:15:35;4.03;;;3.05;;
23658;SDS011;12006;42.666;23.326;2023-08-17T09:18:59;3.22;;;2.90;;
23658;SDS011;12006;42.666;23.326;2023-08-17T09:22:24;3.40;;;3.00;;
23658;SDS011;12006;42.666;23.326;2023-08-17T09:25:49;2.90;;;2.55;;
23658;SDS011;12006;42.666;23.326;2023-08-17T09:29:17;3.13;;;2.83;;
23658;SDS011;12006;42.666;23.326;2023-08-17T09:32:42;3.30;;;2.90;;
23658;SDS011;12006;42.666;23.326;2023-08-17T09:36:05;3.38;;;3.15;;
23658;SDS011;12006;42.666;23.326;2023-08-17T09:39:30;3.88;;;3.35;;
23658;SDS011;12006;42.666;23.326;2023-08-17T09:42:54;5.68;;;5.07;;
23658;SDS011;12006;42.666;23.326;2023-08-17T09:46:19;3.42;;;3.13;;
23658;SDS011;12006;42.666;23.326;2023-08-17T09:49:51;3.92;;;3.20;;
23658;SDS011;12006;42.666;23.326;2023-08-17T09:53:16;3.38;;;2.67;;
23658;SDS011;12006;42.666;23.326;2023-08-17T09:56:48;2.50;;;2.30;;
23658;SDS011;12006;42.666;23.326;2023-08-17T10:00:17;2.60;;;2.10;;
23658;SDS011;12006;42.666;23.326;2023-08-17T10:03:43;2.50;;;2.30;;
23658;SDS011;12006;42.666;23.326;2023-08-17T10:07:07;2.75;;;1.90;;
23658;SDS011;12006;42.666;23.326;2023-08-17T10:10:34;2.45;;;1.98;;
23658;SDS011;12006;42.666;23.326;2023-08-17T10:14:05;2.25;;;2.10;;
23658;SDS011;12006;42.666;23.326;2023-08-17T10:17:43;2.97;;;2.20;;
23658;SDS011;12006;42.666;23.326;2023-08-17T10:21:20;2.05;;;1.95;;
23658;SDS011;12006;42.666;23.326;2023-08-17T10:24:49;2.10;;;2.00;;
23658;SDS011;12006;42.666;23.326;2023-08-17T10:28:13;2.28;;;2.08;;
23658;SDS011;12006;42.666;23.326;2023-08-17T10:31:38;3.08;;;2.00;;
23658;SDS011;12006;42.666;23.326;2023-08-17T10:35:02;2.60;;;2.15;;
23658;SDS011;12006;42.666;23.326;2023-08-17T10:38:27;3.30;;;3.00;;
23658;SDS011;12006;42.666;23.326;2023-08-17T10:41:54;2.53;;;2.33;;
23658;SDS011;12006;42.666;23.326;2023-08-17T10:45:28;2.53;;;2.33;;
23658;SDS011;12006;42.666;23.326;2023-08-17T10:49:05;2.60;;;2.30;;
23658;SDS011;12006;42.666;23.326;2023-08-17T10:52:32;2.60;;;2.40;;
23658;SDS011;12006;42.666;23.326;2023-08-17T10:56:01;2.47;;;1.90;;
23658;SDS011;12006;42.666;23.326;2023-08-17T10:59:45;2.40;;;1.70;;
23658;SDS011;12006;42.666;23.326;2023-08-17T11:03:10;2.33;;;2.13;;
23658;SDS011;12006;42.666;23.326;2023-08-17T11:06:42;3.47;;;3.20;;
23658;SDS011;12006;42.666;23.326;2023-08-17T11:10:49;3.90;;;3.28;;
23658;SDS011;12006;42.666;23.326;2023-08-17T11:13:56;2.70;;;2.50;;
23658;SDS011;12006;42.666;23.326;2023-08-17T11:17:22;2.55;;;2.35;;
23658;SDS011;12006;42.666;23.326;2023-08-17T11:20:47;5.88;;;5.43;;
23658;SDS011;12006;42.666;23.326;2023-08-17T11:24:11;5.32;;;3.60;;
23658;SDS011;12006;42.666;23.326;2023-08-17T11:27:36;3.20;;;2.90;;
23658;SDS011;12006;42.666;23.326;2023-08-17T11:31:06;4.43;;;2.42;;
23658;SDS011;12006;42.666;23.326;2023-08-17T11:34:31;3.03;;;2.83;;
23658;SDS011;12006;42.666;23.326;2023-08-17T11:37:54;3.42;;;2.83;;
23658;SDS011;12006;42.666;23.326;2023-08-17T11:41:18;3.15;;;2.95;;
23658;SDS011;12006;42.666;23.326;2023-08-17T11:44:42;2.75;;;2.55;;
23658;SDS011;12006;42.666;23.326;2023-08-17T11:48:07;4.38;;;3.20;;
23658;SDS011;12006;42.666;23.326;2023-08-17T11:51:31;4.43;;;2.90;;
23658;SDS011;12006;42.666;23.326;2023-08-17T11:54:57;3.35;;;2.58;;
23658;SDS011;12006;42.666;23.326;2023-08-17T11:58:35;3.28;;;2.97;;
23658;SDS011;12006;42.666;23.326;2023-08-17T12:02:00;3.05;;;2.85;;
23658;SDS011;12006;42.666;23.326;2023-08-17T12:05:24;3.75;;;3.45;;
23658;SDS011;12006;42.666;23.326;2023-08-17T12:08:48;3.63;;;3.13;;
23658;SDS011;12006;42.666;23.326;2023-08-17T12:12:13;4.88;;;2.78;;
23658;SDS011;12006;42.666;23.326;2023-08-17T12:15:38;2.88;;;2.33;;
23658;SDS011;12006;42.666;23.326;2023-08-17T12:19:15;2.95;;;2.70;;
23658;SDS011;12006;42.666;23.326;2023-08-17T12:22:42;5.13;;;2.90;;
23658;SDS011;12006;42.666;23.326;2023-08-17T12:26:07;3.25;;;2.95;;
23658;SDS011;12006;42.666;23.326;2023-08-17T12:29:31;3.28;;;2.88;;
23658;SDS011;12006;42.666;23.326;2023-08-17T12:32:57;4.35;;;3.35;;
23658;SDS011;12006;42.666;23.326;2023-08-17T12:36:21;3.50;;;3.20;;
23658;SDS011;12006;42.666;23.326;2023-08-17T12:39:46;3.80;;;2.97;;
23658;SDS011;12006;42.666;23.326;2023-08-17T12:43:09;3.60;;;3.30;;
23658;SDS011;12006;42.666;23.326;2023-08-17T12:46:34;3.78;;;3.47;;
23658;SDS011;12006;42.666;23.326;2023-08-17T12:49:58;3.90;;;3.15;;
23658;SDS011;12006;42.666;23.326;2023-08-17T12:53:22;3.40;;;3.10;;
23658;SDS011;12006;42.666;23.326;2023-08-17T12:56:46;3.63;;;3.33;;
23658;SDS011;12006;42.666;23.326;2023-08-17T13:00:10;4.93;;;3.83;;
23658;SDS011;12006;42.666;23.326;2023-08-17T13:03:34;3.97;;;3.65;;
23658;SDS011;12006;42.666;23.326;2023-08-17T13:06:58;5.80;;;5.38;;
23658;SDS011;12006;42.666;23.326;2023-08-17T13:10:22;4.68;;;4.35;;
23658;SDS011;12006;42.666;23.326;2023-08-17T13:13:46;4.45;;;4.07;;
23658;SDS011;12006;42.666;23.326;2023-08-17T13:17:10;4.22;;;3.80;;
23658;SDS011;12006;42.666;23.326;2023-08-17T13:20:34;6.38;;;5.80;;
23658;SDS011;12006;42.666;23.326;2023-08-17T13:23:58;5.85;;;4.78;;
23658;SDS011;12006;42.666;23.326;2023-08-17T13:27:21;5.03;;;3.50;;
23658;SDS011;12006;42.666;23.326;2023-08-17T13:30:45;5.72;;;5.13;;
23658;SDS011;12006;42.666;23.326;2023-08-17T13:34:11;5.20;;;4.50;;
23658;SDS011;12006;42.666;23.326;2023-08-17T13:37:36;3.42;;;3.22;;
23658;SDS011;12006;42.666;23.326;2023-08-17T13:41:00;4.03;;;3.72;;
23658;SDS011;12006;42.666;23.326;2023-08-17T13:44:24;4.07;;;3.75;;
23658;SDS011;12006;42.666;23.326;2023-08-17T13:47:48;4.95;;;4.60;;
23658;SDS011;12006;42.666;23.326;2023-08-17T13:51:12;4.97;;;3.55;;
23658;SDS011;12006;42.666;23.326;2023-08-17T13:54:35;3.53;;;3.22;;
23658;SDS011;12006;42.666;23.326;2023-08-17T13:57:59;3.60;;;3.30;;
23658;SDS011;12006;42.666;23.326;2023-08-17T14:01:23;5.28;;;4.20;;
23658;SDS011;12006;42.666;23.326;2023-08-17T14:04:47;4.50;;;4.10;;
23658;SDS011;12006;42.666;23.326;2023-08-17T14:08:11;4.55;;;4.00;;
23658;SDS011;12006;42.666;23.326;2023-08-17T14:11:35;6.00;;;5.40;;
23658;SDS011;12006;42.666;23.326;2023-08-17T14:14:59;5.55;;;4.00;;
23658;SDS011;12006;42.666;23.326;2023-08-17T14:18:24;5.80;;;5.05;;
23658;SDS011;12006;42.666;23.326;2023-08-17T14:21:48;4.45;;;4.15;;
23658;SDS011;12006;42.666;23.326;2023-08-17T14:25:13;5.05;;;3.90;;
23658;SDS011;12006;42.666;23.326;2023-08-17T14:28:37;4.22;;;3.38;;
23658;SDS011;12006;42.666;23.326;2023-08-17T14:32:00;7.38;;;3.95;;
23658;SDS011;12006;42.666;23.326;2023-08-17T14:35:25;4.20;;;3.58;;
23658;SDS011;12006;42.666;23.326;2023-08-17T14:38:49;3.58;;;3.28;;
23658;SDS011;12006;42.666;23.326;2023-08-17T14:42:13;3.80;;;3.40;;
23658;SDS011;12006;42.666;23.326;2023-08-17T14:45:39;3.40;;;3.10;;
23658;SDS011;12006;42.666;23.326;2023-08-17T14:49:07;3.35;;;3.08;;
23658;SDS011;12006;42.666;23.326;2023-08-17T14:52:31;3.13;;;2.92;;
23658;SDS011;12006;42.666;23.326;2023-08-17T14:55:55;3.80;;;3.17;;
23658;SDS011;12006;42.666;23.326;2023-08-17T14:59:19;3.75;;;3.15;;
23658;SDS011;12006;42.666;23.326;2023-08-17T15:02:43;4.97;;;3.25;;
23658;SDS011;12006;42.666;23.326;2023-08-17T15:06:07;4.65;;;4.25;;
23658;SDS011;12006;42.666;23.326;2023-08-17T15:09:35;4.10;;;3.80;;
23658;SDS011;12006;42.666;23.326;2023-08-17T15:12:59;4.68;;;4.28;;
23658;SDS011;12006;42.666;23.326;2023-08-17T15:16:23;4.05;;;3.75;;
23658;SDS011;12006;42.666;23.326;2023-08-17T15:19:47;3.42;;;3.13;;
23658;SDS011;12006;42.666;23.326;2023-08-17T15:23:11;4.20;;;3.08;;
23658;SDS011;12006;42.666;23.326;2023-08-17T15:26:35;4.68;;;3.30;;
23658;SDS011;12006;42.666;23.326;2023-08-17T15:29:59;3.50;;;3.20;;
23658;SDS011;12006;42.666;23.326;2023-08-17T15:33:28;4.47;;;3.58;;
23658;SDS011;12006;42.666;23.326;2023-08-17T15:36:52;3.55;;;3.35;;
23658;SDS011;12006;42.666;23.326;2023-08-17T15:40:15;3.35;;;3.08;;
23658;SDS011;12006;42.666;23.326;2023-08-17T15:43:39;3.78;;;3.42;;
23658;SDS011;12006;42.666;23.326;2023-08-17T15:47:03;3.50;;;3.30;;
23658;SDS011;12006;42.666;23.326;2023-08-17T15:50:28;3.85;;;3.25;;
23658;SDS011;12006;42.666;23.326;2023-08-17T15:53:53;4.05;;;3.72;;
23658;SDS011;12006;42.666;23.326;2023-08-17T15:57:17;4.43;;;3.40;;
23658;SDS011;12006;42.666;23.326;2023-08-17T16:00:41;3.67;;;3.38;;
23658;SDS011;12006;42.666;23.326;2023-08-17T16:04:05;4.18;;;3.78;;
23658;SDS011;12006;42.666;23.326;2023-08-17T16:07:29;3.90;;;3.50;;
23658;SDS011;12006;42.666;23.326;2023-08-17T16:10:53;3.50;;;3.30;;
23658;SDS011;12006;42.666;23.326;2023-08-17T16:14:18;3.72;;;3.42;;
23658;SDS011;12006;42.666;23.326;2023-08-17T16:17:42;3.42;;;3.22;;
23658;SDS011;12006;42.666;23.326;2023-08-17T16:21:06;3.53;;;3.28;;
23658;SDS011;12006;42.666;23.326;2023-08-17T16:24:29;3.83;;;3.53;;
23658;SDS011;12006;42.666;23.326;2023-08-17T16:27:54;4.28;;;3.42;;
23658;SDS011;12006;42.666;23.326;2023-08-17T16:31:18;4.10;;;3.70;;
23658;SDS011;12006;42.666;23.326;2023-08-17T16:34:42;4.45;;;3.70;;
23658;SDS011;12006;42.666;23.326;2023-08-17T16:38:06;4.03;;;3.63;;
23658;SDS011;12006;42.666;23.326;2023-08-17T16:41:30;5.57;;;5.03;;
23658;SDS011;12006;42.666;23.326;2023-08-17T16:44:54;5.57;;;3.75;;
23658;SDS011;12006;42.666;23.326;2023-08-17T16:48:18;4.07;;;3.70;;
23658;SDS011;12006;42.666;23.326;2023-08-17T16:51:43;3.67;;;3.30;;
23658;SDS011;12006;42.666;23.326;2023-08-17T16:55:07;4.00;;;3.70;;
23658;SDS011;12006;42.666;23.326;2023-08-17T16:58:30;4.63;;;3.78;;
23658;SDS011;12006;42.666;23.326;2023-08-17T17:01:54;3.97;;;3.63;;
23658;SDS011;12006;42.666;23.326;2023-08-17T17:05:18;3.35;;;3.05;;
23658;SDS011;12006;42.666;23.326;2023-08-17T17:08:43;3.88;;;3.47;;
23658;SDS011;12006;42.666;23.326;2023-08-17T17:12:07;4.13;;;3.72;;
23658;SDS011;12006;42.666;23.326;2023-08-17T17:15:31;4.00;;;3.67;;
23658;SDS011;12006;42.666;23.326;2023-08-17T17:18:55;3.90;;;3.60;;
23658;SDS011;12006;42.666;23.326;2023-08-17T17:22:18;4.38;;;4.05;;
23658;SDS011;12006;42.666;23.326;2023-08-17T17:25:42;4.40;;;3.65;;
23658;SDS011;12006;42.666;23.326;2023-08-17T17:29:06;4.13;;;3.72;;
23658;SDS011;12006;42.666;23.326;2023-08-17T17:32:31;4.25;;;3.85;;
23658;SDS011;12006;42.666;23.326;2023-08-17T17:35:55;4.22;;;3.83;;
23658;SDS011;12006;42.666;23.326;2023-08-17T17:39:19;4.25;;;3.90;;
23658;SDS011;12006;42.666;23.326;2023-08-17T17:42:43;5.10;;;3.80;;
23658;SDS011;12006;42.666;23.326;2023-08-17T17:46:07;4.25;;;3.88;;
23658;SDS011;12006;42.666;23.326;2023-08-17T17:49:30;4.00;;;3.70;;
23658;SDS011;12006;42.666;23.326;2023-08-17T17:52:54;3.85;;;3.55;;
23658;SDS011;12006;42.666;23.326;2023-08-17T17:56:19;4.35;;;3.30;;
23658;SDS011;12006;42.666;23.326;2023-08-17T17:59:59;4.38;;;3.97;;
23658;SDS011;12006;42.666;23.326;2023-08-17T18:03:23;6.35;;;4.55;;
23658;SDS011;12006;42.666;23.326;2023-08-17T18:06:47;3.90;;;3.60;;
23658;SDS011;12006;42.666;23.326;2023-08-17T18:10:11;4.82;;;3.85;;
23658;SDS011;12006;42.666;23.326;2023-08-17T18:13:35;4.57;;;4.18;;
23658;SDS011;12006;42.666;23.326;2023-08-17T18:16:59;5.20;;;4.57;;
23658;SDS011;12006;42.666;23.326;2023-08-17T18:20:23;5.20;;;4.53;;
23658;SDS011;12006;42.666;23.326;2023-08-17T18:23:48;4.50;;;3.95;;
23658;SDS011;12006;42.666;23.326;2023-08-17T18:27:12;4.63;;;4.22;;
23658;SDS011;12006;42.666;23.326;2023-08-17T18:30:36;4.75;;;4.35;;
23658;SDS011;12006;42.666;23.326;2023-08-17T18:34:05;5.72;;;4.45;;
23658;SDS011;12006;42.666;23.326;2023-08-17T18:37:29;5.60;;;4.53;;
23658;SDS011;12006;42.666;23.326;2023-08-17T18:40:53;5.10;;;4.47;;
23658;SDS011;12006;42.666;23.326;2023-08-17T18:44:28;5.32;;;4.82;;
23658;SDS011;12006;42.666;23.326;2023-08-17T18:47:52;5.60;;;4.97;;
23658;SDS011;12006;42.666;23.326;2023-08-17T18:51:17;5.32;;;4.88;;
23658;SDS011;12006;42.666;23.326;2023-08-17T18:54:56;5.25;;;4.65;;
23658;SDS011;12006;42.666;23.326;2023-08-17T18:58:20;5.88;;;4.45;;
23658;SDS011;12006;42.666;23.326;2023-08-17T19:01:44;8.60;;;5.60;;
23658;SDS011;12006;42.666;23.326;2023-08-17T19:05:08;5.88;;;4.85;;
23658;SDS011;12006;42.666;23.326;2023-08-17T19:08:32;5.40;;;5.00;;
23658;SDS011;12006;42.666;23.326;2023-08-17T19:11:56;5.88;;;5.30;;
23658;SDS011;12006;42.666;23.326;2023-08-17T19:15:20;5.63;;;5.07;;
23658;SDS011;12006;42.666;23.326;2023-08-17T19:18:44;6.60;;;4.60;;
23658;SDS011;12006;42.666;23.326;2023-08-17T19:22:08;5.10;;;4.70;;
23658;SDS011;12006;42.666;23.326;2023-08-17T19:25:32;5.78;;;4.40;;
23658;SDS011;12006;42.666;23.326;2023-08-17T19:28:56;5.00;;;4.60;;
23658;SDS011;12006;42.666;23.326;2023-08-17T19:32:20;5.13;;;4.63;;
23658;SDS011;12006;42.666;23.326;2023-08-17T19:35:44;5.20;;;4.80;;
23658;SDS011;12006;42.666;23.326;2023-08-17T19:39:08;4.95;;;4.50;;
23658;SDS011;12006;42.666;23.326;2023-08-17T19:42:33;5.65;;;4.55;;
23658;SDS011;12006;42.666;23.326;2023-08-17T19:45:57;5.60;;;5.13;;
23658;SDS011;12006;42.666;23.326;2023-08-17T19:49:21;5.00;;;4.50;;
23658;SDS011;12006;42.666;23.326;2023-08-17T19:52:45;5.00;;;4.50;;
23658;SDS011;12006;42.666;23.326;2023-08-17T19:56:09;6.82;;;4.80;;
23658;SDS011;12006;42.666;23.326;2023-08-17T19:59:33;5.70;;;4.70;;
23658;SDS011;12006;42.666;23.326;2023-08-17T20:02:57;5.10;;;4.60;;
23658;SDS011;12006;42.666;23.326;2023-08-17T20:06:21;4.93;;;4.50;;
23658;SDS011;12006;42.666;23.326;2023-08-17T20:09:45;4.40;;;4.00;;
23658;SDS011;12006;42.666;23.326;2023-08-17T20:13:09;4.60;;;4.20;;
23658;SDS011;12006;42.666;23.326;2023-08-17T20:16:33;4.40;;;4.10;;
23658;SDS011;12006;42.666;23.326;2023-08-17T20:19:57;4.45;;;4.05;;
23658;SDS011;12006;42.666;23.326;2023-08-17T20:23:24;4.68;;;4.20;;